Observations for LEEDS AND BRADFORD, United Kingdom (EGNM)

EGNM 250320Z 26013KT 190V280 9999 FEW032 01/M01 Q1009   
EGNM 250220Z 24008KT 9999 FEW030 00/M01 Q1009   
EGNM 250150Z 26007KT 9999 FEW035 00/M01 Q1009   
EGNM 250120Z 28006KT 9999 FEW038 00/M01 Q1010   
EGNM 250050Z 27004KT 9999 FEW031 00/M01 Q1010   
EGNM 250020Z 28005KT 9999 FEW030 M00/M01 Q1010  
EGNM 242350Z 28004KT 9999 FEW032 00/M01 Q1010   
EGNM 242320Z 26006KT 9999 FEW035 01/M00 Q1009   
EGNM 242250Z 25008KT 9999 FEW032 01/M00 Q1009   
EGNM 242220Z 25008KT 190V270 9999 FEW028 01/00 Q1009
EGNM 242150Z 25007KT 9999 FEW030 01/00 Q1009
EGNM 242120Z 26007KT 9999 FEW027 02/00 Q1009
EGNM 242050Z 24005KT 9999 FEW009 SCT022CB 02/01 Q1009   
EGNM 242020Z 25006KT 220V280 9999 -SHRA FEW010 SCT038CB 02/01 Q1009 
EGNM 241950Z 24007KT 9999 FEW015 SCT032CB 02/01 Q1009   
EGNM 241920Z 25007KT 190V270 9999 -SHSN FEW007 SCT020CB 01/00 Q1009 
EGNM 241850Z 25007KT 220V290 9999 VCSH FEW006 SCT018CB 02/01 Q1009  
EGNM 241820Z 23008KT 200V260 9999 8000W SCT020CB 02/01 Q1009
EGNM 241750Z 23011KT 180V270 6000 SHSN SCT008 SCT016CB 01/01 Q1009  
EGNM 241720Z 25010KT 9000 -SHSN SCT006 SCT012CB 01/M00 Q1009
EGNM 241650Z 28015G27KT 250V350 9999 -SHRA SCT025CB 03/M00 Q1009
EGNM 241620Z 25006KT 190V270 9999 SCT025CB 04/M00 Q1008 
EGNM 241550Z 24007KT 190V270 9999 FEW020CB 05/M00 Q1008 
EGNM 241520Z 25009KT 220V280 9999 FEW020CB 05/00 Q1009  
EGNM 241450Z 24007KT 200V280 9999 FEW023TCU 06/01 Q1008 
EGNM 241420Z 25009KT 190V280 9999 FEW023TCU 06/01 Q1008 
EGNM 241350Z 25009KT 220V290 9999 SCT030 05/02 Q1009
EGNM 241320Z 25011KT 220V280 9999 SCT025 06/02 Q1009
EGNM 241250Z 26011KT 190V280 9999 SCT030 06/01 Q1009
EGNM 241220Z 26008KT 9999 FEW031 06/01 Q1009
EGNM 241150Z 21004KT 150V270 9999 FEW018 06/01 Q1009
EGNM 241120Z 26008KT 190V290 9999 FEW020 05/01 Q1008
EGNM 241050Z 25006KT 190V350 CAVOK 05/01 Q1008  
EGNM 241020Z 26006KT CAVOK 04/00 Q1008  
EGNM 240950Z 25004KT 220V290 9999 FEW015CB 03/00 Q1008  
EGNM 240920Z 26004KT 190V350 9999 FEW015CB 03/M00 Q1008 
EGNM 240850Z 25004KT 190V280 9999 FEW020 02/00 Q1007
EGNM 240820Z 23006KT 9999 FEW015CB FEW020 01/M00 Q1007  
EGNM 240750Z 26003KT 9999 FEW030 01/M01 Q1007   
EGNM 240720Z 27006KT 260V350 9999 FEW030 01/M00 Q1007   
EGNM 240650Z 29006KT 9999 FEW025 01/M01 Q1006   
EGNM 240620Z VRB02KT 9999 FEW030 02/M00 Q1006   
EGNM 240550Z 25007KT CAVOK 02/M00 Q1005 
EGNM 240520Z 25009KT 210V280 CAVOK 03/M01 Q1005 
EGNM 240450Z 25007KT 220V280 CAVOK 02/M00 Q1005 
EGNM 240420Z 26007KT CAVOK 02/M00 Q1005 
EGNM 240350Z 25007KT CAVOK 02/00 Q1004  
EGNM 240320Z 26006KT CAVOK 02/00 Q1004  
EGNM 240250Z 26008KT CAVOK 02/00 Q1004